Time;durP1;ratioP1;P1;durP2;ratioP2;P2;SDS_P1;SDS_P2;PMS_P1;PMS_P2;Temp;Humidity;BMP_temperature;BMP_pressure;BME280_temperature;BME280_humidity;BME280_pressure;Samples;Min_cycle;Max_cycle;Signal;HPM_P1;HPM_P2
2023/01/15 00:01:22;;;;;;;14.73;4.10;;;;;;;;;;6155383;23;20325;-89
2023/01/15 00:04:27;;;;;;;20.27;6.30;;;;;;;;;;6155855;23;20193;-91
2023/01/15 00:07:34;;;;;;;10.70;3.30;;;;;;;;;;6155643;23;20233;-92
2023/01/15 00:10:39;;;;;;;8.33;3.87;;;;;;;;;;6155785;23;20197;-92
2023/01/15 00:13:45;;;;;;;7.60;3.10;;;;;;;;;;6155234;23;20165;-92
2023/01/15 00:16:52;;;;;;;10.70;3.60;;;;;;;;;;6155280;23;20215;-91
2023/01/15 00:19:57;;;;;;;7.80;3.40;;;;;;;;;;6155756;23;20177;-91
2023/01/15 00:23:05;;;;;;;8.73;3.17;;;;;;;;;;6156387;23;20494;-89
2023/01/15 00:29:54;;;;;;;6.40;3.07;;;;;;;;;;6155046;23;20191;-90
2023/01/15 00:32:59;;;;;;;8.20;2.83;;;;;;;;;;6158149;23;20185;-88
2023/01/15 00:36:05;;;;;;;6.97;3.17;;;;;;;;;;6154483;23;20251;-90
2023/01/15 00:39:12;;;;;;;12.07;3.87;;;;;;;;;;6157066;23;20353;-92
2023/01/15 00:42:19;;;;;;;7.53;3.30;;;;;;;;;;6157897;23;20525;-90
2023/01/15 00:45:25;;;;;;;14.50;4.53;;;;;;;;;;6156717;23;20196;-90
2023/01/15 00:48:31;;;;;;;9.50;4.37;;;;;;;;;;6155594;23;20226;-91
2023/01/15 00:51:39;;;;;;;9.70;3.00;;;;;;;;;;6158576;23;20169;-89
2023/01/15 00:54:49;;;;;;;12.65;4.43;;;;;;;;;;6141967;23;20177;-92
2023/01/15 00:57:55;;;;;;;10.27;3.00;;;;;;;;;;6156124;23;20632;-91
2023/01/15 01:01:01;;;;;;;8.80;3.17;;;;;;;;;;6156019;23;20156;-89
2023/01/15 01:04:11;;;;;;;9.40;3.40;;;;;;;;;;6156645;23;20176;-90
2023/01/15 01:07:18;;;;;;;8.25;3.17;;;;;;;;;;6158529;23;20189;-92
2023/01/15 01:10:26;;;;;;;9.53;3.60;;;;;;;;;;6158789;23;20160;-90
2023/01/15 01:13:31;;;;;;;9.63;3.70;;;;;;;;;;6158786;23;20171;-91
2023/01/15 01:16:38;;;;;;;6.87;2.70;;;;;;;;;;6156414;23;20172;-91
2023/01/15 01:19:44;;;;;;;9.20;3.23;;;;;;;;;;6156524;23;20178;-90
2023/01/15 01:22:49;;;;;;;7.33;3.30;;;;;;;;;;6156690;23;20165;-91
2023/01/15 01:25:58;;;;;;;9.57;3.37;;;;;;;;;;6157344;23;20203;-90
2023/01/15 01:29:04;;;;;;;7.23;2.90;;;;;;;;;;6156637;23;20168;-91
2023/01/15 01:32:12;;;;;;;10.07;2.93;;;;;;;;;;6127866;23;20161;-91
2023/01/15 01:35:17;;;;;;;10.77;3.35;;;;;;;;;;6128239;23;20177;-91
2023/01/15 01:38:24;;;;;;;8.17;3.30;;;;;;;;;;6129055;23;20168;-91
2023/01/15 01:41:32;;;;;;;11.13;3.10;;;;;;;;;;6129886;23;20169;-93
2023/01/15 01:45:01;;;;;;;10.02;3.00;;;;;;;;;;6127424;23;20212;-91
2023/01/15 01:48:08;;;;;;;11.17;3.33;;;;;;;;;;6125909;23;20189;-90
2023/01/15 01:51:14;;;;;;;7.83;3.00;;;;;;;;;;6129232;23;20178;-91
2023/01/15 01:54:22;;;;;;;11.77;3.20;;;;;;;;;;6128754;23;20180;-92
2023/01/15 01:57:31;;;;;;;10.70;3.00;;;;;;;;;;6128693;23;20169;-92
2023/01/15 02:00:37;;;;;;;8.53;3.20;;;;;;;;;;6128333;23;20180;-90
2023/01/15 02:03:43;;;;;;;16.07;6.90;;;;;;;;;;6127481;23;20191;-91
2023/01/15 02:06:49;;;;;;;7.47;3.00;;;;;;;;;;6128085;23;20181;-91
2023/01/15 02:09:54;;;;;;;9.37;3.33;;;;;;;;;;6126972;23;20202;-89
2023/01/15 02:13:05;;;;;;;11.23;3.30;;;;;;;;;;6127616;23;20177;-93
2023/01/15 02:16:15;;;;;;;8.03;2.83;;;;;;;;;;6128303;23;20168;-92
2023/01/15 02:19:28;;;;;;;6.47;2.67;;;;;;;;;;6126586;23;20156;-91
2023/01/15 02:22:39;;;;;;;7.10;2.60;;;;;;;;;;6127700;23;20223;-92
2023/01/15 02:25:52;;;;;;;5.87;2.50;;;;;;;;;;6128097;23;20176;-90
2023/01/15 02:29:00;;;;;;;6.87;2.30;;;;;;;;;;6128150;23;20169;-91
2023/01/15 02:32:09;;;;;;;5.60;2.40;;;;;;;;;;6127026;23;20162;-90
2023/01/15 02:35:18;;;;;;;5.73;2.60;;;;;;;;;;6128292;23;20177;-92
2023/01/15 02:38:26;;;;;;;7.60;2.10;;;;;;;;;;6126791;23;20169;-92
2023/01/15 02:41:34;;;;;;;4.90;2.17;;;;;;;;;;6127339;23;20172;-91
2023/01/15 02:44:42;;;;;;;6.07;2.20;;;;;;;;;;6128654;23;20185;-92
2023/01/15 02:47:52;;;;;;;4.43;2.20;;;;;;;;;;6127781;23;20152;-92
2023/01/15 02:51:02;;;;;;;6.40;2.10;;;;;;;;;;6128242;23;20168;-92
2023/01/15 02:54:12;;;;;;;6.23;2.40;;;;;;;;;;6128676;23;20169;-93
2023/01/15 02:57:19;;;;;;;6.87;1.90;;;;;;;;;;6128163;23;20165;-91
2023/01/15 03:00:40;;;;;;;7.17;2.23;;;;;;;;;;6129793;23;20197;-89
2023/01/15 03:03:51;;;;;;;7.53;2.33;;;;;;;;;;6130443;23;20221;-90
2023/01/15 03:07:00;;;;;;;5.70;2.53;;;;;;;;;;6129255;23;20214;-91
2023/01/15 03:10:08;;;;;;;5.70;1.90;;;;;;;;;;6128459;23;20150;-91
2023/01/15 03:13:17;;;;;;;4.53;1.97;;;;;;;;;;6128400;23;20203;-90
2023/01/15 03:16:37;;;;;;;11.57;2.20;;;;;;;;;;6128463;23;20201;-90
2023/01/15 03:19:46;;;;;;;4.30;1.90;;;;;;;;;;6129439;23;20198;-92
2023/01/15 03:22:59;;;;;;;6.65;1.92;;;;;;;;;;6130117;23;20213;-91
2023/01/15 03:26:05;;;;;;;7.45;2.22;;;;;;;;;;6127523;23;20320;-92
2023/01/15 03:29:14;;;;;;;6.28;1.90;;;;;;;;;;6128710;23;20613;-92
2023/01/15 03:32:22;;;;;;;6.40;2.40;;;;;;;;;;6172287;23;20163;-90
2023/01/15 03:35:43;;;;;;;7.20;2.50;;;;;;;;;;6172438;23;20168;-93
2023/01/15 03:38:54;;;;;;;6.80;2.00;;;;;;;;;;6174429;23;20162;-93
2023/01/15 03:42:25;;;;;;;4.53;2.13;;;;;;;;;;6174548;23;20149;-91
2023/01/15 03:45:33;;;;;;;4.07;1.80;;;;;;;;;;6174310;23;20195;-91
2023/01/15 03:48:45;;;;;;;7.43;2.20;;;;;;;;;;6171463;23;20165;-89
2023/01/15 03:51:53;;;;;;;6.90;2.40;;;;;;;;;;6173823;23;20173;-91
2023/01/15 03:55:03;;;;;;;9.17;2.70;;;;;;;;;;6172298;23;20248;-89
2023/01/15 03:58:14;;;;;;;6.77;2.60;;;;;;;;;;6171620;23;20221;-91
2023/01/15 04:01:22;;;;;;;8.40;2.30;;;;;;;;;;6173659;23;20153;-91
2023/01/15 04:04:30;;;;;;;4.30;1.70;;;;;;;;;;6172304;23;20237;-89
2023/01/15 04:07:38;;;;;;;6.33;2.70;;;;;;;;;;6172660;23;20240;-91
2023/01/15 04:10:52;;;;;;;4.60;2.00;;;;;;;;;;6172094;23;20152;-91
2023/01/15 04:13:59;;;;;;;6.77;1.80;;;;;;;;;;6171303;23;20149;-91
2023/01/15 04:17:12;;;;;;;4.90;2.20;;;;;;;;;;6172079;23;20169;-92
2023/01/15 04:20:19;;;;;;;5.20;1.83;;;;;;;;;;6171866;23;20221;-91
2023/01/15 04:23:25;;;;;;;5.23;1.70;;;;;;;;;;6173082;23;20262;-91
2023/01/15 04:26:30;;;;;;;8.10;2.07;;;;;;;;;;6172379;23;20184;-90
2023/01/15 04:29:36;;;;;;;4.05;1.45;;;;;;;;;;6171628;23;20169;-93
2023/01/15 04:32:41;;;;;;;4.50;1.95;;;;;;;;;;6154754;23;20177;-90
2023/01/15 04:35:48;;;;;;;4.15;1.80;;;;;;;;;;6154669;23;20176;-93
2023/01/15 04:38:56;;;;;;;5.03;1.70;;;;;;;;;;6152901;23;20180;-92
2023/01/15 04:45:24;;;;;;;10.73;2.93;;;;;;;;;;6153415;23;20192;-91
2023/01/15 04:48:30;;;;;;;9.97;1.80;;;;;;;;;;6154165;23;20192;-92
2023/01/15 04:51:38;;;;;;;4.80;1.73;;;;;;;;;;6154488;23;20163;-90
2023/01/15 04:54:43;;;;;;;6.10;2.20;;;;;;;;;;6153850;23;20171;-91
2023/01/15 04:57:51;;;;;;;6.33;2.10;;;;;;;;;;6153908;23;20169;-92
2023/01/15 05:00:56;;;;;;;5.77;2.03;;;;;;;;;;6152575;23;20238;-90
2023/01/15 05:04:02;;;;;;;5.90;2.10;;;;;;;;;;6153089;23;20161;-91
2023/01/15 05:07:11;;;;;;;7.03;2.40;;;;;;;;;;6154328;23;20177;-91
2023/01/15 05:10:16;;;;;;;6.07;2.37;;;;;;;;;;6153716;23;20213;-89
2023/01/15 05:13:21;;;;;;;9.93;2.40;;;;;;;;;;6153106;23;20223;-91
2023/01/15 05:16:27;;;;;;;9.50;2.67;;;;;;;;;;6152606;23;20188;-91
2023/01/15 05:19:32;;;;;;;6.10;2.50;;;;;;;;;;6153278;23;20176;-90
2023/01/15 05:22:39;;;;;;;7.57;2.67;;;;;;;;;;6153228;23;20164;-90
2023/01/15 05:25:44;;;;;;;12.00;2.30;;;;;;;;;;6153744;23;20271;-89
2023/01/15 05:28:50;;;;;;;8.27;2.20;;;;;;;;;;6155393;23;20216;-90
2023/01/15 05:31:55;;;;;;;5.20;2.37;;;;;;;;;;6156017;23;20200;-91
2023/01/15 05:35:00;;;;;;;6.27;2.60;;;;;;;;;;6155738;23;20168;-91
2023/01/15 05:38:27;;;;;;;6.23;2.60;;;;;;;;;;6153752;23;20169;-90
2023/01/15 05:41:49;;;;;;;8.93;2.27;;;;;;;;;;6155144;23;20184;-91
2023/01/15 05:44:54;;;;;;;6.85;2.45;;;;;;;;;;6155557;23;20165;-90
2023/01/15 05:47:59;;;;;;;8.00;2.37;;;;;;;;;;6153254;23;20606;-90
2023/01/15 05:51:05;;;;;;;7.93;2.80;;;;;;;;;;6153614;23;20249;-90
2023/01/15 05:54:12;;;;;;;7.10;2.60;;;;;;;;;;6154265;23;20499;-91
2023/01/15 05:57:19;;;;;;;8.30;2.97;;;;;;;;;;6153713;23;20161;-92
2023/01/15 06:00:25;;;;;;;9.33;3.10;;;;;;;;;;6154562;23;20160;-91
2023/01/15 06:03:30;;;;;;;7.87;2.63;;;;;;;;;;6153702;23;20314;-91
2023/01/15 06:06:35;;;;;;;6.07;2.47;;;;;;;;;;6152605;23;20211;-91
2023/01/15 06:09:41;;;;;;;9.43;2.50;;;;;;;;;;6154437;23;20152;-90
2023/01/15 06:12:48;;;;;;;7.37;2.57;;;;;;;;;;6154529;23;20156;-92
2023/01/15 06:15:54;;;;;;;6.27;2.63;;;;;;;;;;6155114;23;20172;-91
2023/01/15 06:19:03;;;;;;;12.73;2.90;;;;;;;;;;6155095;23;20180;-91
2023/01/15 06:22:08;;;;;;;8.93;2.80;;;;;;;;;;6155369;23;20164;-91
2023/01/15 06:25:14;;;;;;;6.70;2.73;;;;;;;;;;6155779;23;20184;-91
2023/01/15 06:28:21;;;;;;;6.20;2.37;;;;;;;;;;6156552;23;20215;-90
2023/01/15 06:31:27;;;;;;;7.57;2.90;;;;;;;;;;6157116;23;20184;-93
2023/01/15 06:34:32;;;;;;;13.80;2.67;;;;;;;;;;6158233;23;20167;-91
2023/01/15 06:48:47;;;;;;;6.83;2.60;;;;;;;;;;6158054;23;20238;-90
2023/01/15 06:51:52;;;;;;;12.50;2.93;;;;;;;;;;6159247;23;20612;-91
2023/01/15 06:54:58;;;;;;;10.37;3.20;;;;;;;;;;6159346;23;20172;-91
2023/01/15 06:58:03;;;;;;;9.33;2.83;;;;;;;;;;6157874;23;20172;-90
2023/01/15 07:01:12;;;;;;;7.10;3.30;;;;;;;;;;6157669;23;20197;-92
2023/01/15 07:04:17;;;;;;;8.07;3.27;;;;;;;;;;6159047;23;20204;-92
2023/01/15 07:07:23;;;;;;;11.57;3.50;;;;;;;;;;6159401;23;20253;-91
2023/01/15 07:10:29;;;;;;;11.20;3.70;;;;;;;;;;6161895;23;20237;-93
2023/01/15 07:13:35;;;;;;;13.37;3.77;;;;;;;;;;6159349;23;20148;-93
2023/01/15 07:16:42;;;;;;;13.03;3.63;;;;;;;;;;6158778;23;20168;-92
2023/01/15 07:19:48;;;;;;;7.77;3.00;;;;;;;;;;6157963;23;20177;-91
2023/01/15 07:22:53;;;;;;;9.43;3.77;;;;;;;;;;6157216;23;20167;-92
2023/01/15 07:25:58;;;;;;;8.17;2.97;;;;;;;;;;6158595;23;20200;-91
2023/01/15 07:29:04;;;;;;;22.60;7.97;;;;;;;;;;6158483;23;20167;-92
2023/01/15 07:32:11;;;;;;;23.00;9.33;;;;;;;;;;6158359;23;20214;-91
2023/01/15 07:35:16;;;;;;;11.17;4.30;;;;;;;;;;6157376;23;20226;-92
2023/01/15 07:38:56;;;;;;;11.10;3.87;;;;;;;;;;6158885;23;20157;-90
2023/01/15 07:52:16;;;;;;;10.87;3.80;;;;;;;;;;6159796;23;20237;-91
2023/01/15 07:55:23;;;;;;;13.70;3.97;;;;;;;;;;6157804;23;20164;-92
2023/01/15 07:58:28;;;;;;;6.63;3.27;;;;;;;;;;6158548;23;20224;-91
2023/01/15 08:01:34;;;;;;;8.20;3.30;;;;;;;;;;6158989;23;20180;-88
2023/01/15 08:04:46;;;;;;;9.30;3.60;;;;;;;;;;6159656;23;20168;-91
2023/01/15 08:07:52;;;;;;;9.43;4.03;;;;;;;;;;6160581;23;20239;-92
2023/01/15 08:17:54;;;;;;;8.17;4.13;;;;;;;;;;6160998;23;20192;-91
2023/01/15 08:21:01;;;;;;;8.90;4.17;;;;;;;;;;6159543;23;20173;-90
2023/01/15 12:40:52;;;;;;;2.63;1.50;;;;;;;;;;6123180;23;20201;-88
2023/01/15 12:47:24;;;;;;;1.30;1.00;;;;;;;;;;6152822;23;20651;-88
2023/01/15 12:50:33;;;;;;;1.90;1.00;;;;;;;;;;6150036;23;20180;-89
2023/01/15 12:53:42;;;;;;;1.52;0.90;;;;;;;;;;6152146;23;20216;-88
2023/01/15 12:56:58;;;;;;;1.52;0.85;;;;;;;;;;6151302;23;20261;-89
2023/01/15 13:00:07;;;;;;;2.28;1.30;;;;;;;;;;6150153;23;20155;-89
2023/01/15 13:03:17;;;;;;;0.77;0.70;;;;;;;;;;6150769;23;20156;-90
2023/01/15 13:06:26;;;;;;;1.38;0.75;;;;;;;;;;6151340;23;20525;-89
2023/01/15 13:09:36;;;;;;;1.70;1.05;;;;;;;;;;6151689;23;20180;-90
2023/01/15 13:12:43;;;;;;;2.05;1.13;;;;;;;;;;6148585;23;20164;-90
2023/01/15 13:15:58;;;;;;;3.45;1.27;;;;;;;;;;6150176;23;20229;-91
2023/01/15 13:19:17;;;;;;;2.10;0.82;;;;;;;;;;6153257;23;20181;-90
2023/01/15 13:22:24;;;;;;;1.80;0.90;;;;;;;;;;6157079;23;20209;-90
2023/01/15 13:25:35;;;;;;;1.35;0.80;;;;;;;;;;6152448;23;20290;-89
2023/01/15 13:28:58;;;;;;;4.05;1.05;;;;;;;;;;6149502;23;20165;-90
2023/01/15 13:32:05;;;;;;;1.58;1.00;;;;;;;;;;6150449;23;20168;-91
2023/01/15 13:35:12;;;;;;;2.65;0.93;;;;;;;;;;6151497;23;20172;-92
2023/01/15 13:38:20;;;;;;;3.75;1.35;;;;;;;;;;6152286;23;20189;-91
2023/01/15 13:44:53;;;;;;;1.88;0.80;;;;;;;;;;6150521;23;20176;-88
2023/01/15 13:48:00;;;;;;;4.50;1.63;;;;;;;;;;6150627;23;20200;-89
2023/01/15 13:51:06;;;;;;;7.47;2.00;;;;;;;;;;6150218;23;20180;-92
2023/01/15 13:54:14;;;;;;;11.15;2.97;;;;;;;;;;6149888;23;20230;-90
2023/01/15 13:57:24;;;;;;;7.22;2.20;;;;;;;;;;6148665;23;20175;-90
2023/01/15 14:00:32;;;;;;;2.28;1.00;;;;;;;;;;6152152;23;20619;-90
2023/01/15 14:03:39;;;;;;;1.67;0.60;;;;;;;;;;6152247;23;20299;-89
2023/01/15 14:06:45;;;;;;;2.67;0.80;;;;;;;;;;6150419;23;20195;-89
2023/01/15 14:09:50;;;;;;;1.60;0.82;;;;;;;;;;6150122;23;20172;-89
2023/01/15 14:13:00;;;;;;;1.20;0.80;;;;;;;;;;6148820;23;20171;-90
2023/01/15 14:16:12;;;;;;;2.92;1.55;;;;;;;;;;6149950;23;20183;-92
2023/01/15 14:19:28;;;;;;;3.95;1.90;;;;;;;;;;6151803;23;20854;-91
2023/01/15 14:22:51;;;;;;;2.55;1.60;;;;;;;;;;6149067;23;20177;-88
2023/01/15 14:26:01;;;;;;;3.75;1.50;;;;;;;;;;6148112;23;20173;-92
2023/01/15 14:29:21;;;;;;;3.47;1.30;;;;;;;;;;6150208;23;20168;-90
2023/01/15 14:32:40;;;;;;;2.65;1.00;;;;;;;;;;6151530;23;20173;-88
2023/01/15 14:35:46;;;;;;;1.20;0.73;;;;;;;;;;6150504;23;20164;-89
2023/01/15 14:38:54;;;;;;;1.05;0.70;;;;;;;;;;6150262;23;20217;-89
2023/01/15 14:45:27;;;;;;;1.33;0.50;;;;;;;;;;6150766;23;20165;-90
2023/01/15 14:48:38;;;;;;;1.02;0.70;;;;;;;;;;6150712;23;20236;-91
2023/01/15 14:51:50;;;;;;;2.73;0.70;;;;;;;;;;6150409;23;20216;-93
2023/01/15 14:54:56;;;;;;;1.50;0.80;;;;;;;;;;6150300;23;20173;-90
2023/01/15 14:58:04;;;;;;;1.15;0.70;;;;;;;;;;6153222;23;20188;-89
2023/01/15 15:01:19;;;;;;;1.65;0.70;;;;;;;;;;6153810;23;20193;-88
2023/01/15 15:04:34;;;;;;;1.37;0.70;;;;;;;;;;6154366;23;20177;-87
2023/01/15 15:07:42;;;;;;;1.80;1.10;;;;;;;;;;6152033;23;20196;-90
2023/01/15 15:10:51;;;;;;;1.20;0.80;;;;;;;;;;6155120;23;20171;-88
2023/01/15 15:13:57;;;;;;;1.23;0.88;;;;;;;;;;6153464;23;20172;-90
2023/01/15 15:17:05;;;;;;;1.83;0.95;;;;;;;;;;6153755;23;20176;-91
2023/01/15 15:20:24;;;;;;;4.83;1.17;;;;;;;;;;6153570;23;20246;-90
2023/01/15 15:23:32;;;;;;;2.93;1.20;;;;;;;;;;6152876;23;20157;-88
2023/01/15 15:26:38;;;;;;;2.60;1.00;;;;;;;;;;6152378;23;20164;-90
2023/01/15 15:29:44;;;;;;;0.90;0.70;;;;;;;;;;6153394;23;20237;-90
2023/01/15 15:32:51;;;;;;;1.33;0.80;;;;;;;;;;6153513;23;20243;-88
2023/01/15 15:35:59;;;;;;;1.73;0.90;;;;;;;;;;6152425;23;20169;-91
2023/01/15 15:39:20;;;;;;;2.93;1.40;;;;;;;;;;6152576;23;20228;-91
2023/01/15 15:49:18;;;;;;;1.00;0.70;;;;;;;;;;6152358;23;20165;-90
2023/01/15 15:52:26;;;;;;;1.20;0.63;;;;;;;;;;6153594;23;20173;-90
2023/01/15 15:55:37;;;;;;;0.77;0.75;;;;;;;;;;6150825;23;20169;-91
2023/01/15 15:58:43;;;;;;;1.90;1.00;;;;;;;;;;6151573;23;20204;-87
2023/01/15 16:01:49;;;;;;;3.23;1.67;;;;;;;;;;6152602;23;20172;-88
2023/01/15 16:04:56;;;;;;;4.03;1.67;;;;;;;;;;6152407;23;20168;-86
2023/01/15 16:08:18;;;;;;;2.80;1.30;;;;;;;;;;6151265;23;20196;-90
2023/01/15 16:11:24;;;;;;;2.60;1.30;;;;;;;;;;6151312;23;20177;-88
2023/01/15 16:14:34;;;;;;;1.20;0.67;;;;;;;;;;6151376;23;20185;-89
2023/01/15 16:17:41;;;;;;;1.40;1.00;;;;;;;;;;6149244;23;20281;-90
2023/01/15 16:20:46;;;;;;;1.43;1.00;;;;;;;;;;6150763;23;20193;-92
2023/01/15 16:24:01;;;;;;;0.90;0.70;;;;;;;;;;6151957;23;20226;-88
2023/01/15 16:27:20;;;;;;;2.80;0.97;;;;;;;;;;6152229;23;20209;-90
2023/01/15 16:30:26;;;;;;;1.70;0.80;;;;;;;;;;6153283;23;20169;-88
2023/01/15 16:33:31;;;;;;;3.33;1.20;;;;;;;;;;6152798;23;20221;-88
2023/01/15 16:36:50;;;;;;;1.70;0.93;;;;;;;;;;6155560;23;20616;-89
2023/01/15 16:39:57;;;;;;;1.37;0.87;;;;;;;;;;6152692;23;20269;-89
2023/01/15 16:43:07;;;;;;;1.50;0.80;;;;;;;;;;6154474;23;20213;-88
2023/01/15 16:46:18;;;;;;;2.37;1.23;;;;;;;;;;6154420;23;20244;-91
2023/01/15 16:49:27;;;;;;;2.17;1.00;;;;;;;;;;6153162;23;20204;-89
2023/01/15 16:52:42;;;;;;;1.17;0.80;;;;;;;;;;6154782;23;20168;-89
2023/01/15 16:55:53;;;;;;;5.60;1.90;;;;;;;;;;6154638;23;20168;-89
2023/01/15 16:58:59;;;;;;;2.93;1.30;;;;;;;;;;6154306;23;20176;-92
2023/01/15 17:02:05;;;;;;;5.17;1.53;;;;;;;;;;6152133;23;20220;-88
2023/01/15 17:05:18;;;;;;;3.40;1.80;;;;;;;;;;6152766;23;20565;-89
2023/01/15 17:08:24;;;;;;;4.37;1.87;;;;;;;;;;6169667;23;20200;-89
2023/01/15 17:15:20;;;;;;;6.67;2.63;;;;;;;;;;6152453;23;20197;-89
2023/01/15 17:18:28;;;;;;;3.80;1.63;;;;;;;;;;6151765;23;20168;-88
2023/01/15 17:21:34;;;;;;;2.13;1.30;;;;;;;;;;6152908;23;20169;-90
2023/01/15 17:24:47;;;;;;;3.33;1.60;;;;;;;;;;6154503;23;20675;-90
2023/01/15 17:27:53;;;;;;;8.20;3.13;;;;;;;;;;6152904;23;20193;-89
2023/01/15 17:31:01;;;;;;;9.80;3.30;;;;;;;;;;6154154;23;20176;-89
2023/01/15 17:34:08;;;;;;;5.53;2.17;;;;;;;;;;6154878;23;20184;-90
2023/01/15 17:37:13;;;;;;;2.60;1.33;;;;;;;;;;6155476;23;20168;-89
2023/01/15 17:40:19;;;;;;;2.83;1.73;;;;;;;;;;6156818;23;20175;-88
2023/01/15 17:43:25;;;;;;;3.53;1.90;;;;;;;;;;6158305;23;20208;-90
2023/01/15 17:46:30;;;;;;;3.40;1.77;;;;;;;;;;6176353;23;20172;-87
2023/01/15 17:49:38;;;;;;;3.37;1.83;;;;;;;;;;6157758;23;20197;-89
2023/01/15 17:52:44;;;;;;;5.77;2.57;;;;;;;;;;6156636;23;20198;-88
2023/01/15 18:06:01;;;;;;;4.47;2.23;;;;;;;;;;6155243;23;20169;-88
2023/01/15 18:09:07;;;;;;;4.63;2.33;;;;;;;;;;6155019;23;20232;-87
2023/01/15 18:12:17;;;;;;;3.37;1.80;;;;;;;;;;6152887;23;20189;-90
2023/01/15 18:15:23;;;;;;;2.87;1.70;;;;;;;;;;6152490;23;20172;-88
2023/01/15 18:18:28;;;;;;;2.67;1.40;;;;;;;;;;6151469;23;20307;-89
2023/01/15 18:21:37;;;;;;;1.73;1.00;;;;;;;;;;6150832;23;20172;-86
2023/01/15 18:24:43;;;;;;;3.80;1.50;;;;;;;;;;6151910;23;20168;-88
2023/01/15 18:27:49;;;;;;;2.00;1.20;;;;;;;;;;6151206;23;20196;-88
2023/01/15 18:30:54;;;;;;;4.33;2.03;;;;;;;;;;6153692;23;20152;-91
2023/01/15 18:33:59;;;;;;;4.20;1.53;;;;;;;;;;6153355;23;20216;-86
2023/01/15 18:37:06;;;;;;;3.00;1.43;;;;;;;;;;6155076;23;20216;-89
2023/01/15 18:40:13;;;;;;;1.90;1.30;;;;;;;;;;6155073;23;20220;-89
2023/01/15 18:46:53;;;;;;;1.90;1.20;;;;;;;;;;6054753;23;20184;-87
2023/01/15 18:49:59;;;;;;;5.83;2.03;;;;;;;;;;6126232;23;20168;-90
2023/01/15 18:53:07;;;;;;;4.63;2.10;;;;;;;;;;6126515;23;20256;-90
2023/01/15 18:56:37;;;;;;;4.57;2.60;;;;;;;;;;6127521;23;20176;-89
2023/01/15 18:59:39;;;;;;;2.83;1.90;;;;;;;;;;6125888;23;20221;-91
2023/01/15 19:02:45;;;;;;;3.67;2.20;;;;;;;;;;6122530;23;20238;-89
2023/01/15 19:05:50;;;;;;;4.70;2.20;;;;;;;;;;6125772;23;20170;-90
2023/01/15 19:08:57;;;;;;;2.57;1.50;;;;;;;;;;6125862;23;20197;-90
2023/01/15 19:12:18;;;;;;;2.23;1.40;;;;;;;;;;6123437;23;20708;-88
2023/01/15 19:18:52;;;;;;;2.00;1.30;;;;;;;;;;6123327;23;20173;-88
2023/01/15 19:25:22;;;;;;;2.60;1.40;;;;;;;;;;6124269;23;20165;-87
2023/01/15 19:28:32;;;;;;;3.77;1.60;;;;;;;;;;6124039;23;20255;-88
2023/01/15 19:31:38;;;;;;;2.13;1.50;;;;;;;;;;6125515;23;20179;-87
2023/01/15 19:34:43;;;;;;;3.43;1.50;;;;;;;;;;6126033;23;20173;-89
2023/01/15 19:37:49;;;;;;;4.07;2.00;;;;;;;;;;6124288;23;20164;-91
2023/01/15 19:50:17;;;;;;;1.90;1.50;;;;;;;;;;6132331;23;20195;-90
2023/01/15 19:51:08;;;;;;;4.90;1.73;;;;;;;;;;6154633;23;20193;-90
2023/01/15 19:54:54;;;;;;;4.53;1.83;;;;;;;;;;6156224;23;20172;-90
2023/01/15 19:57:43;;;;;;;18.17;8.30;;;;;;;;;;6154737;23;20164;-90
2023/01/15 20:00:49;;;;;;;8.47;2.93;;;;;;;;;;6156559;23;20480;-90
2023/01/15 20:03:55;;;;;;;7.63;2.93;;;;;;;;;;6156969;23;20168;-90
2023/01/15 20:07:00;;;;;;;30.40;13.40;;;;;;;;;;6155875;23;20208;-92
2023/01/15 20:10:06;;;;;;;11.10;5.50;;;;;;;;;;6154520;23;20205;-89
2023/01/15 20:16:38;;;;;;;6.00;3.70;;;;;;;;;;6156749;23;20281;-91
2023/01/15 20:19:46;;;;;;;3.97;2.67;;;;;;;;;;6158079;23;20185;-90
2023/01/15 20:22:55;;;;;;;6.47;3.70;;;;;;;;;;6156698;23;20172;-90
2023/01/15 20:26:01;;;;;;;12.80;5.50;;;;;;;;;;6155583;23;20256;-88
2023/01/15 20:29:08;;;;;;;8.00;3.70;;;;;;;;;;6156266;23;20192;-90
2023/01/15 20:32:13;;;;;;;6.77;3.37;;;;;;;;;;6155708;23;20216;-91
2023/01/15 20:35:21;;;;;;;3.90;2.60;;;;;;;;;;6153788;23;20233;-90
2023/01/15 20:38:26;;;;;;;6.37;3.70;;;;;;;;;;6156087;23;20586;-89
2023/01/15 20:44:56;;;;;;;5.63;2.30;;;;;;;;;;6157931;23;20165;-90
2023/01/15 20:51:26;;;;;;;5.30;2.80;;;;;;;;;;6155122;23;20168;-91
2023/01/15 20:54:31;;;;;;;10.27;5.30;;;;;;;;;;6155068;23;20168;-87
2023/01/15 20:57:36;;;;;;;4.93;3.10;;;;;;;;;;6155813;23;20168;-90
2023/01/15 21:00:43;;;;;;;6.03;3.23;;;;;;;;;;6156526;23;20173;-88
2023/01/15 21:03:49;;;;;;;7.13;3.07;;;;;;;;;;6156271;23;20257;-91
2023/01/15 21:06:54;;;;;;;7.60;2.90;;;;;;;;;;6155344;23;20381;-88
2023/01/15 21:09:59;;;;;;;7.23;3.50;;;;;;;;;;6155140;23;20220;-88
2023/01/15 21:13:05;;;;;;;4.30;2.73;;;;;;;;;;6156265;23;20179;-89
2023/01/15 21:16:15;;;;;;;4.37;2.60;;;;;;;;;;6156309;23;20233;-88
2023/01/15 21:19:20;;;;;;;6.57;3.90;;;;;;;;;;6156029;23;20167;-88
2023/01/15 21:22:25;;;;;;;7.70;3.90;;;;;;;;;;6154603;23;20168;-88
2023/01/15 21:25:31;;;;;;;11.30;4.87;;;;;;;;;;6155846;23;20180;-88
2023/01/15 21:28:36;;;;;;;8.00;3.47;;;;;;;;;;6157161;23;20535;-89
2023/01/15 21:31:45;;;;;;;6.73;3.33;;;;;;;;;;6157104;23;20172;-89
2023/01/15 21:34:50;;;;;;;5.80;3.17;;;;;;;;;;6156427;23;20660;-90
2023/01/15 21:37:56;;;;;;;8.13;3.60;;;;;;;;;;6154531;23;20176;-88
2023/01/15 21:41:07;;;;;;;7.20;3.40;;;;;;;;;;6155124;23;20195;-91
2023/01/15 21:44:32;;;;;;;6.20;3.60;;;;;;;;;;6155045;23;20384;-91
2023/01/15 21:47:40;;;;;;;7.87;4.40;;;;;;;;;;6154024;23;20164;-91
2023/01/15 21:50:45;;;;;;;8.20;4.37;;;;;;;;;;6152572;23;20169;-92
2023/01/15 21:53:50;;;;;;;6.80;4.17;;;;;;;;;;6154992;23;20180;-89
2023/01/15 21:56:56;;;;;;;10.03;4.23;;;;;;;;;;6153148;23;20212;-91
2023/01/15 22:00:02;;;;;;;6.70;4.00;;;;;;;;;;6154328;23;20227;-91
2023/01/15 22:03:12;;;;;;;12.40;5.80;;;;;;;;;;6155121;23;20181;-90
2023/01/15 22:06:18;;;;;;;11.77;4.83;;;;;;;;;;6154872;23;20180;-90
2023/01/15 22:09:24;;;;;;;9.17;4.03;;;;;;;;;;6154776;23;20181;-91
2023/01/15 22:12:29;;;;;;;10.50;4.20;;;;;;;;;;6153490;23;20180;-90
2023/01/15 22:15:34;;;;;;;6.67;3.93;;;;;;;;;;6154782;23;20164;-91
2023/01/15 22:18:48;;;;;;;10.53;4.03;;;;;;;;;;6153096;23;20595;-90
2023/01/15 22:21:54;;;;;;;6.63;3.30;;;;;;;;;;6152263;23;20181;-90
2023/01/15 22:24:59;;;;;;;6.93;3.50;;;;;;;;;;6153820;23;20157;-90
2023/01/15 22:28:05;;;;;;;6.20;3.43;;;;;;;;;;6153081;23;20196;-91
2023/01/15 22:31:10;;;;;;;8.83;4.13;;;;;;;;;;6153598;23;20189;-90
2023/01/15 22:34:17;;;;;;;8.23;3.97;;;;;;;;;;6153918;23;20171;-90
2023/01/15 22:37:22;;;;;;;12.57;4.30;;;;;;;;;;6154523;23;20230;-91
2023/01/15 22:40:27;;;;;;;10.33;4.40;;;;;;;;;;6155254;23;20196;-90
2023/01/15 22:43:33;;;;;;;11.77;4.50;;;;;;;;;;6155632;23;20168;-90
2023/01/15 22:46:38;;;;;;;11.13;4.67;;;;;;;;;;6156355;23;20148;-89
2023/01/15 22:49:47;;;;;;;8.60;4.60;;;;;;;;;;6155529;23;20196;-90
2023/01/15 22:52:55;;;;;;;10.73;4.93;;;;;;;;;;6155335;23;20243;-87
2023/01/15 22:56:01;;;;;;;8.77;4.63;;;;;;;;;;6156070;23;20164;-90
2023/01/15 22:59:06;;;;;;;12.73;5.03;;;;;;;;;;6158197;23;20192;-91
2023/01/15 23:02:14;;;;;;;8.70;4.47;;;;;;;;;;6155859;23;20177;-90
2023/01/15 23:05:22;;;;;;;11.73;4.40;;;;;;;;;;6156303;23;20168;-89
2023/01/15 23:08:31;;;;;;;9.80;4.60;;;;;;;;;;6155738;23;20188;-89
2023/01/15 23:12:07;;;;;;;8.33;3.97;;;;;;;;;;6156271;23;20181;-88
2023/01/15 23:15:14;;;;;;;12.17;4.63;;;;;;;;;;6155751;23;20184;-90
2023/01/15 23:18:22;;;;;;;7.70;4.47;;;;;;;;;;6156862;23;20173;-89
2023/01/15 23:21:29;;;;;;;13.33;5.30;;;;;;;;;;6157087;23;20172;-90
2023/01/15 23:24:35;;;;;;;11.43;4.90;;;;;;;;;;6157777;23;20205;-88
2023/01/15 23:27:40;;;;;;;17.23;5.07;;;;;;;;;;6158280;23;20209;-88
2023/01/15 23:30:46;;;;;;;16.67;5.33;;;;;;;;;;6155666;23;20199;-89
2023/01/15 23:33:51;;;;;;;14.93;4.73;;;;;;;;;;6157357;23;20160;-90
2023/01/15 23:36:58;;;;;;;17.77;5.00;;;;;;;;;;6156813;23;20169;-88
2023/01/15 23:40:04;;;;;;;12.67;4.77;;;;;;;;;;6156443;23;20180;-88
2023/01/15 23:46:33;;;;;;;8.70;4.30;;;;;;;;;;6155541;23;20237;-89
2023/01/15 23:49:39;;;;;;;7.73;4.00;;;;;;;;;;6155744;23;20248;-88
2023/01/15 23:52:47;;;;;;;7.77;4.07;;;;;;;;;;6155435;23;20180;-89
2023/01/15 23:55:52;;;;;;;8.97;3.87;;;;;;;;;;6156450;23;20176;-89
2023/01/15 23:58:58;;;;;;;11.90;3.70;;;;;;;;;;6156517;23;20176;-89
